createdAt,value
2022-08-19T00:00:22.986Z,7.37
2022-08-19T00:03:10.082Z,10.43
2022-08-19T00:05:57.059Z,8.00
2022-08-19T00:08:44.339Z,11.60
2022-08-19T00:11:31.473Z,10.40
2022-08-19T00:14:19.307Z,14.97
2022-08-19T00:17:07.599Z,8.63
2022-08-19T00:19:54.603Z,8.50
2022-08-19T00:22:42.490Z,7.73
2022-08-19T00:25:30.407Z,8.20
2022-08-19T00:28:17.814Z,9.33
2022-08-19T00:31:05.710Z,10.63
2022-08-19T00:33:52.809Z,7.53
2022-08-19T00:36:41.141Z,7.20
2022-08-19T00:39:28.182Z,7.97
2022-08-19T00:42:16.581Z,9.57
2022-08-19T00:45:09.661Z,7.70
2022-08-19T00:47:56.634Z,9.20
2022-08-19T00:50:52.002Z,11.70
2022-08-19T00:53:40.754Z,8.70
2022-08-19T00:56:28.052Z,9.23
2022-08-19T00:59:17.083Z,11.07
2022-08-19T01:02:24.281Z,12.80
2022-08-19T01:05:16.113Z,11.00
2022-08-19T01:08:06.757Z,11.27
2022-08-19T01:10:57.382Z,13.20
2022-08-19T01:13:50.066Z,14.63
2022-08-19T01:16:39.915Z,16.30
2022-08-19T01:19:43.663Z,13.77
2022-08-19T01:22:40.145Z,13.67
2022-08-19T01:25:42.110Z,15.47
2022-08-19T01:28:34.035Z,12.87
2022-08-19T01:31:33.214Z,14.30
2022-08-19T01:34:20.969Z,16.73
2022-08-19T01:37:12.300Z,14.57
2022-08-19T01:39:59.437Z,13.37
2022-08-19T01:42:46.493Z,13.07
2022-08-19T01:45:35.438Z,13.80
2022-08-19T01:48:23.016Z,15.50
2022-08-19T01:51:11.918Z,15.23
2022-08-19T01:53:59.269Z,14.17
2022-08-19T01:56:46.266Z,14.13
2022-08-19T01:59:34.384Z,18.90
2022-08-19T02:02:21.751Z,17.63
2022-08-19T02:05:10.690Z,16.60
2022-08-19T02:07:58.588Z,17.00
2022-08-19T02:10:46.121Z,19.37
2022-08-19T02:13:33.936Z,21.77
2022-08-19T02:16:21.706Z,20.90
2022-08-19T02:19:09.050Z,18.87
2022-08-19T02:21:56.103Z,18.80
2022-08-19T02:24:43.325Z,19.83
2022-08-19T02:27:30.383Z,17.30
2022-08-19T02:30:18.409Z,18.60
2022-08-19T02:33:06.090Z,17.80
2022-08-19T02:35:53.154Z,19.43
2022-08-19T02:38:40.766Z,23.80
2022-08-19T02:41:30.305Z,22.13
2022-08-19T02:44:29.882Z,22.43
2022-08-19T02:47:20.078Z,21.33
2022-08-19T02:50:07.524Z,23.30
2022-08-19T02:52:54.670Z,22.50
2022-08-19T02:55:47.485Z,24.73
2022-08-19T02:58:34.819Z,23.27
2022-08-19T03:01:28.898Z,24.97
2022-08-19T03:04:17.249Z,24.93
2022-08-19T03:07:10.558Z,22.73
2022-08-19T03:09:58.363Z,21.33
2022-08-19T03:12:47.242Z,23.50
2022-08-19T03:15:34.192Z,25.03
2022-08-19T03:18:23.181Z,22.43
2022-08-19T03:21:12.273Z,21.50
2022-08-19T03:24:02.462Z,28.97
2022-08-19T03:26:53.033Z,28.23
2022-08-19T03:29:43.321Z,27.57
2022-08-19T03:32:32.539Z,29.97
2022-08-19T03:35:21.310Z,26.47
2022-08-19T03:38:08.418Z,28.20
2022-08-19T03:40:55.407Z,29.57
2022-08-19T03:43:44.003Z,26.60
2022-08-19T03:46:33.602Z,29.53
2022-08-19T03:49:21.290Z,31.83
2022-08-19T03:52:15.272Z,28.83
2022-08-19T03:55:02.686Z,29.27
2022-08-19T03:57:50.038Z,27.93
2022-08-19T04:00:37.901Z,27.33
2022-08-19T04:03:27.801Z,30.60
2022-08-19T04:06:23.886Z,34.33
2022-08-19T04:09:12.026Z,26.83
2022-08-19T04:11:59.577Z,28.60
2022-08-19T04:14:46.856Z,26.17
2022-08-19T04:17:34.278Z,28.53
2022-08-19T04:20:21.316Z,30.90
2022-08-19T04:23:08.537Z,31.10
2022-08-19T04:25:56.790Z,29.13
2022-08-19T04:28:44.723Z,29.33
2022-08-19T04:31:36.585Z,28.70
2022-08-19T04:34:25.559Z,32.80
2022-08-19T04:37:13.623Z,29.53
2022-08-19T04:40:19.502Z,31.77
2022-08-19T04:43:06.481Z,28.87
2022-08-19T04:45:56.852Z,32.77
2022-08-19T04:48:49.313Z,31.57
2022-08-19T04:51:37.502Z,31.77
2022-08-19T04:54:37.903Z,35.40
2022-08-19T04:57:27.305Z,32.53
2022-08-19T05:00:14.757Z,35.33
2022-08-19T05:03:02.094Z,33.83
2022-08-19T05:05:50.086Z,35.97
2022-08-19T05:08:40.922Z,36.53
2022-08-19T05:11:33.757Z,38.67
2022-08-19T05:14:22.094Z,35.33
2022-08-19T05:17:26.606Z,31.07
2022-08-19T05:20:33.014Z,33.77
2022-08-19T05:23:22.753Z,36.37
2022-08-19T05:26:12.040Z,37.03
2022-08-19T05:28:59.029Z,33.40
2022-08-19T05:31:50.457Z,33.27
2022-08-19T05:34:39.261Z,33.37
2022-08-19T05:37:28.662Z,29.20
2022-08-19T05:40:15.834Z,31.03
2022-08-19T05:43:04.317Z,30.80
2022-08-19T05:45:51.741Z,34.47
2022-08-19T05:48:38.728Z,29.67
2022-08-19T05:51:28.997Z,33.13
2022-08-19T05:54:16.558Z,27.27
2022-08-19T05:57:04.026Z,30.13
2022-08-19T05:59:53.082Z,26.97
2022-08-19T06:02:45.800Z,26.97
2022-08-19T06:05:33.343Z,28.03
2022-08-19T06:08:35.102Z,24.60
2022-08-19T06:11:33.758Z,26.10
2022-08-19T06:14:27.688Z,24.00
2022-08-19T06:17:15.117Z,24.40
2022-08-19T06:20:04.531Z,24.27
2022-08-19T06:22:52.502Z,27.33
2022-08-19T06:25:41.101Z,25.80
2022-08-19T06:28:29.319Z,26.83
2022-08-19T06:31:23.408Z,22.33
2022-08-19T06:34:10.870Z,22.60
2022-08-19T06:37:02.345Z,27.53
2022-08-19T06:39:50.837Z,28.30
2022-08-19T06:42:39.598Z,28.80
2022-08-19T06:45:34.589Z,22.93
2022-08-19T06:48:22.908Z,24.40
2022-08-19T06:51:16.711Z,28.23
2022-08-19T06:54:06.805Z,26.03
2022-08-19T06:57:08.419Z,25.60
2022-08-19T06:59:57.509Z,27.27
2022-08-19T07:02:49.604Z,25.53
2022-08-19T07:05:45.780Z,25.73
2022-08-19T07:08:35.054Z,25.37
2022-08-19T07:11:22.261Z,26.63
2022-08-19T07:14:11.315Z,21.43
2022-08-19T07:17:09.897Z,24.50
2022-08-19T07:19:57.505Z,21.80
2022-08-19T07:22:46.456Z,21.93
2022-08-19T07:25:33.534Z,23.67
2022-08-19T07:28:24.031Z,22.10
2022-08-19T07:31:22.732Z,23.03
2022-08-19T07:34:12.848Z,23.30
2022-08-19T07:37:00.647Z,22.00
2022-08-19T07:39:48.637Z,23.67
2022-08-19T07:42:35.891Z,23.33
2022-08-19T07:45:23.107Z,24.53
2022-08-19T07:48:10.460Z,23.20
2022-08-19T07:51:02.802Z,25.83
2022-08-19T07:53:51.613Z,28.50
2022-08-19T07:56:39.541Z,25.43
2022-08-19T07:59:27.058Z,28.77
2022-08-19T08:02:14.421Z,24.20
2022-08-19T08:05:20.331Z,21.53
2022-08-19T08:08:43.932Z,18.90
2022-08-19T08:11:34.328Z,18.03
2022-08-19T08:14:39.695Z,18.83
2022-08-19T08:17:48.702Z,17.00
2022-08-19T08:20:37.007Z,18.17
2022-08-19T08:23:26.597Z,17.37
2022-08-19T08:26:19.382Z,16.87
2022-08-19T08:29:12.284Z,19.40
2022-08-19T08:32:00.338Z,15.40
2022-08-19T08:34:52.399Z,16.60
2022-08-19T08:37:40.397Z,20.93
2022-08-19T08:40:52.401Z,18.43
2022-08-19T08:43:44.572Z,17.57
2022-08-19T08:46:39.802Z,15.70
2022-08-19T08:49:41.257Z,18.30
2022-08-19T08:52:37.596Z,13.23
2022-08-19T08:55:36.469Z,15.07
2022-08-19T08:58:35.778Z,14.80
2022-08-19T09:01:23.460Z,14.97
2022-08-19T09:04:14.365Z,10.90
2022-08-19T09:07:18.502Z,10.93
2022-08-19T09:10:30.183Z,8.73
2022-08-19T09:13:42.504Z,10.67
2022-08-19T09:16:31.057Z,4.50
2022-08-19T09:19:22.393Z,6.13
2022-08-19T09:22:10.010Z,6.73
2022-08-19T09:24:57.687Z,5.77
2022-08-19T09:27:45.790Z,6.87
2022-08-19T09:30:42.801Z,6.20
2022-08-19T09:33:30.136Z,5.27
2022-08-19T09:36:29.548Z,7.40
2022-08-19T09:39:20.733Z,7.87
2022-08-19T09:42:20.243Z,8.63
2022-08-19T09:45:22.708Z,7.97
2022-08-19T09:48:11.733Z,5.33
2022-08-19T09:51:27.308Z,7.30
2022-08-19T09:54:15.747Z,6.57
2022-08-19T09:57:10.768Z,7.70
2022-08-19T09:59:57.737Z,6.97
2022-08-19T10:02:44.790Z,4.97
2022-08-19T10:05:55.306Z,4.03
2022-08-19T10:08:50.190Z,3.65
2022-08-19T10:11:51.055Z,4.00
2022-08-19T10:14:40.969Z,7.65
2022-08-19T10:17:31.691Z,2.53
2022-08-19T10:20:21.033Z,2.90
2022-08-19T10:23:08.072Z,4.70
2022-08-19T10:28:58.177Z,2.65
2022-08-19T10:32:01.058Z,1.95
2022-08-19T10:34:57.149Z,2.10
2022-08-19T10:37:57.108Z,1.92
2022-08-19T10:40:44.999Z,2.75
2022-08-19T10:43:33.349Z,1.98
2022-08-19T10:46:23.067Z,1.50
2022-08-19T10:49:12.485Z,1.50
2022-08-19T10:52:18.767Z,2.17
2022-08-19T10:55:29.265Z,1.60
2022-08-19T10:58:23.728Z,1.40
2022-08-19T11:01:11.269Z,2.55
2022-08-19T11:03:59.021Z,2.00
2022-08-19T11:06:53.415Z,2.17
2022-08-19T11:09:42.933Z,2.60
2022-08-19T11:12:30.297Z,2.78
2022-08-19T11:15:17.649Z,1.40
2022-08-19T11:18:04.896Z,2.55
2022-08-19T11:21:15.487Z,2.13
2022-08-19T11:24:07.540Z,3.42
2022-08-19T11:27:01.131Z,2.75
2022-08-19T11:29:48.751Z,2.42
2022-08-19T11:32:36.469Z,2.35
2022-08-19T11:35:24.997Z,2.25
2022-08-19T11:38:12.410Z,1.92
2022-08-19T11:41:01.685Z,1.65
2022-08-19T11:43:49.480Z,4.35
2022-08-19T11:46:38.894Z,2.60
2022-08-19T11:49:26.224Z,1.70
2022-08-19T11:52:14.066Z,2.92
2022-08-19T11:55:03.291Z,2.17
2022-08-19T11:57:53.723Z,2.40
2022-08-19T12:00:41.582Z,1.45
2022-08-19T12:03:30.681Z,1.92
2022-08-19T12:06:26.717Z,1.73
2022-08-19T12:09:15.276Z,3.17
2022-08-19T12:12:03.489Z,2.88
2022-08-19T12:14:51.917Z,2.15
2022-08-19T12:17:39.368Z,2.45
2022-08-19T12:20:27.289Z,2.63
2022-08-19T12:23:16.152Z,5.25
2022-08-19T12:26:03.249Z,2.47
2022-08-19T12:28:50.216Z,2.47
2022-08-19T12:31:37.310Z,2.05
2022-08-19T12:34:25.733Z,2.30
2022-08-19T12:37:13.165Z,2.58
2022-08-19T12:40:00.628Z,2.53
2022-08-19T12:42:48.173Z,2.22
2022-08-19T12:45:35.612Z,2.70
2022-08-19T12:48:33.246Z,2.35
2022-08-19T12:51:21.626Z,2.65
2022-08-19T12:54:08.943Z,2.13
2022-08-19T12:56:56.560Z,2.47
2022-08-19T12:59:43.986Z,2.95
2022-08-19T13:02:33.152Z,3.65
2022-08-19T13:05:30.705Z,3.60
2022-08-19T13:08:18.186Z,3.72
2022-08-19T13:11:20.210Z,2.80
2022-08-19T13:14:07.314Z,4.40
2022-08-19T13:16:54.314Z,2.30
2022-08-19T13:19:41.285Z,2.92
2022-08-19T13:22:28.354Z,4.22
2022-08-19T13:25:18.513Z,2.92
2022-08-19T13:28:07.601Z,3.15
2022-08-19T13:31:13.191Z,3.03
2022-08-19T13:34:00.313Z,2.22
2022-08-19T13:36:47.580Z,2.58
2022-08-19T13:39:35.922Z,3.05
2022-08-19T13:42:23.010Z,3.58
2022-08-19T13:45:10.888Z,4.05
2022-08-19T13:47:59.718Z,2.28
2022-08-19T13:50:49.286Z,2.58
2022-08-19T13:53:38.788Z,2.50
2022-08-19T13:56:26.672Z,3.05
2022-08-19T13:59:14.170Z,3.13
2022-08-19T14:02:02.531Z,2.25
2022-08-19T14:04:49.626Z,2.03
2022-08-19T14:07:37.357Z,2.65
2022-08-19T14:10:25.823Z,2.38
2022-08-19T14:13:16.839Z,1.90
2022-08-19T14:16:09.705Z,2.53
2022-08-19T14:18:56.769Z,2.35
2022-08-19T14:21:44.333Z,2.33
2022-08-19T14:24:31.519Z,2.00
2022-08-19T14:27:19.449Z,3.97
2022-08-19T14:30:10.324Z,2.97
2022-08-19T14:32:59.789Z,2.33
2022-08-19T14:35:46.892Z,2.10
2022-08-19T14:38:34.467Z,2.17
2022-08-19T14:41:24.741Z,1.85
2022-08-19T14:44:16.762Z,2.50
2022-08-19T14:47:06.473Z,2.00
2022-08-19T14:49:57.134Z,2.40
2022-08-19T14:52:44.413Z,2.25
2022-08-19T14:55:32.754Z,2.35
2022-08-19T14:58:29.230Z,2.47
2022-08-19T15:01:19.272Z,2.05
2022-08-19T15:04:06.937Z,3.42
2022-08-19T15:06:55.323Z,2.03
2022-08-19T15:09:42.991Z,4.00
2022-08-19T15:12:30.050Z,2.28
2022-08-19T15:15:18.425Z,2.60
2022-08-19T15:18:05.613Z,3.28
2022-08-19T15:20:52.722Z,2.50
2022-08-19T15:23:40.754Z,4.55
2022-08-19T15:26:33.593Z,1.63
2022-08-19T15:29:22.547Z,2.33
2022-08-19T15:32:09.934Z,2.55
2022-08-19T15:34:57.114Z,2.58
2022-08-19T15:37:44.687Z,2.00
2022-08-19T15:40:31.918Z,2.95
2022-08-19T15:43:22.234Z,2.30
2022-08-19T15:46:09.240Z,2.42
2022-08-19T15:48:57.522Z,2.05
2022-08-19T15:51:49.854Z,1.95
2022-08-19T15:54:36.818Z,2.00
2022-08-19T15:57:26.607Z,2.78
2022-08-19T16:00:32.303Z,2.38
2022-08-19T16:03:41.308Z,2.92
2022-08-19T16:06:29.506Z,1.90
2022-08-19T16:09:22.115Z,2.38
2022-08-19T16:12:12.300Z,2.53
2022-08-19T16:14:59.542Z,3.30
2022-08-19T16:17:55.349Z,2.42
2022-08-19T16:20:44.401Z,4.25
2022-08-19T16:23:31.413Z,4.47
2022-08-19T16:26:20.052Z,2.17
2022-08-19T16:29:12.981Z,2.35
2022-08-19T16:32:00.935Z,2.88
2022-08-19T16:34:50.555Z,4.47
2022-08-19T16:37:38.126Z,2.65
2022-08-19T16:40:25.183Z,3.67
2022-08-19T16:43:12.152Z,2.83
2022-08-19T16:45:59.646Z,4.00
2022-08-19T16:48:46.750Z,3.75
2022-08-19T16:51:34.086Z,3.17
2022-08-19T16:54:21.130Z,2.50
2022-08-19T16:57:08.142Z,4.57
2022-08-19T16:59:59.708Z,2.45
2022-08-19T17:02:46.697Z,3.38
2022-08-19T17:05:33.748Z,3.08
2022-08-19T17:08:22.510Z,2.97
2022-08-19T17:11:18.134Z,2.33
2022-08-19T17:14:06.054Z,2.70
2022-08-19T17:16:53.838Z,3.53
2022-08-19T17:19:42.288Z,2.30
2022-08-19T17:22:29.759Z,5.95
2022-08-19T17:25:16.962Z,7.05
2022-08-19T17:28:11.961Z,2.25
2022-08-19T17:30:59.013Z,4.13
2022-08-19T17:33:48.500Z,2.63
2022-08-19T17:36:35.983Z,3.00
2022-08-19T17:39:23.121Z,3.53
2022-08-19T17:42:11.012Z,2.20
2022-08-19T17:45:01.070Z,3.15
2022-08-19T17:47:48.136Z,2.60
2022-08-19T17:50:36.180Z,4.75
2022-08-19T17:53:24.490Z,2.65
2022-08-19T17:56:13.750Z,3.33
2022-08-19T17:59:01.744Z,2.28
2022-08-19T18:01:53.213Z,3.53
2022-08-19T18:04:46.850Z,2.60
2022-08-19T18:07:35.685Z,2.45
2022-08-19T18:10:30.807Z,4.15
2022-08-19T18:13:22.298Z,4.00
2022-08-19T18:16:11.521Z,3.00
2022-08-19T18:18:58.676Z,3.08
2022-08-19T18:21:47.066Z,5.38
2022-08-19T18:24:34.083Z,2.60
2022-08-19T18:27:21.319Z,2.55
2022-08-19T18:30:10.566Z,4.40
2022-08-19T18:32:58.588Z,3.22
2022-08-19T18:35:48.790Z,2.45
2022-08-19T18:38:54.269Z,2.28
2022-08-19T18:42:00.245Z,2.72
2022-08-19T18:45:05.453Z,2.35
2022-08-19T18:48:26.719Z,3.15
2022-08-19T18:51:17.460Z,2.30
2022-08-19T18:54:04.798Z,3.05
2022-08-19T18:56:55.961Z,3.63
2022-08-19T18:59:45.072Z,2.40
2022-08-19T19:02:39.012Z,2.73
2022-08-19T19:05:26.046Z,3.67
2022-08-19T19:08:16.586Z,2.47
2022-08-19T19:11:06.040Z,3.07
2022-08-19T19:13:53.101Z,4.23
2022-08-19T19:16:44.395Z,3.83
2022-08-19T19:19:33.341Z,3.93
2022-08-19T19:22:22.145Z,2.60
2022-08-19T19:25:10.864Z,3.77
2022-08-19T19:27:57.913Z,3.17
2022-08-19T19:30:44.955Z,3.17
2022-08-19T19:33:32.266Z,5.00
2022-08-19T19:36:19.451Z,5.33
2022-08-19T19:39:07.534Z,3.20
2022-08-19T19:41:54.915Z,5.03
2022-08-19T19:44:47.261Z,3.40
2022-08-19T19:47:34.514Z,3.77
2022-08-19T19:50:21.567Z,4.47
2022-08-19T19:53:08.805Z,5.03
2022-08-19T19:55:59.894Z,4.50
2022-08-19T19:58:50.652Z,3.77
2022-08-19T20:01:37.778Z,4.13
2022-08-19T20:04:24.953Z,4.13
2022-08-19T20:07:11.972Z,3.77
2022-08-19T20:10:00.315Z,4.20
2022-08-19T20:12:47.603Z,3.70
2022-08-19T20:15:39.056Z,3.73
2022-08-19T20:18:28.871Z,5.50
2022-08-19T20:21:17.133Z,3.97
2022-08-19T20:24:10.371Z,3.33
2022-08-19T20:26:58.051Z,3.87
2022-08-19T20:29:45.057Z,4.20
2022-08-19T20:32:32.120Z,4.03
2022-08-19T20:35:21.670Z,5.63
2022-08-19T20:38:09.569Z,6.87
2022-08-19T20:40:56.621Z,4.80
2022-08-19T20:43:44.254Z,4.57
2022-08-19T20:46:32.472Z,3.70
2022-08-19T20:49:19.477Z,3.73
2022-08-19T20:52:07.354Z,3.30
2022-08-19T20:54:54.416Z,4.10
2022-08-19T20:57:41.421Z,4.93
2022-08-19T21:00:30.527Z,5.37
2022-08-19T21:03:22.779Z,4.77
2022-08-19T21:06:11.613Z,6.93
2022-08-19T21:09:01.029Z,4.40
2022-08-19T21:11:48.280Z,4.40
2022-08-19T21:14:40.165Z,5.03
2022-08-19T21:17:27.148Z,6.33
2022-08-19T21:20:14.907Z,6.33
2022-08-19T21:23:07.421Z,5.83
2022-08-19T21:25:56.500Z,4.97
2022-08-19T21:28:43.453Z,5.77
2022-08-19T21:31:30.543Z,4.37
2022-08-19T21:34:18.574Z,3.60
2022-08-19T21:37:05.996Z,4.77
2022-08-19T21:39:58.719Z,4.90
2022-08-19T21:42:46.601Z,4.67
2022-08-19T21:45:33.926Z,4.03
2022-08-19T21:48:20.949Z,5.60
2022-08-19T21:51:08.674Z,4.73
2022-08-19T21:53:55.803Z,4.47
2022-08-19T21:56:42.850Z,5.10
2022-08-19T21:59:29.847Z,8.63
2022-08-19T22:02:21.526Z,4.23
2022-08-19T22:05:09.406Z,5.77
2022-08-19T22:07:58.103Z,6.10
2022-08-19T22:10:46.989Z,3.77
2022-08-19T22:13:40.400Z,4.73
2022-08-19T22:16:28.758Z,6.27
2022-08-19T22:19:16.575Z,6.03
2022-08-19T22:22:03.838Z,4.03
2022-08-19T22:24:53.054Z,4.80
2022-08-19T22:27:40.329Z,4.87
2022-08-19T22:30:27.945Z,4.33
2022-08-19T22:33:22.689Z,5.53
2022-08-19T22:36:09.792Z,7.00
2022-08-19T22:38:57.062Z,5.73
2022-08-19T22:41:44.226Z,5.77
2022-08-19T22:44:31.214Z,4.07
2022-08-19T22:47:18.618Z,4.13
2022-08-19T22:50:07.468Z,6.53
2022-08-19T22:53:07.319Z,6.13
2022-08-19T22:55:54.386Z,4.73
2022-08-19T22:58:42.340Z,5.00
2022-08-19T23:01:30.890Z,4.43
2022-08-19T23:04:17.994Z,5.97
2022-08-19T23:07:05.509Z,5.70
2022-08-19T23:09:52.568Z,4.87
2022-08-19T23:12:43.665Z,7.43
2022-08-19T23:15:32.481Z,4.97
2022-08-19T23:18:20.188Z,4.53
2022-08-19T23:21:09.758Z,5.97
2022-08-19T23:23:56.838Z,5.23
2022-08-19T23:27:03.983Z,6.10
2022-08-19T23:30:09.210Z,4.53
2022-08-19T23:32:58.690Z,5.63
2022-08-19T23:35:45.671Z,5.83
2022-08-19T23:38:33.114Z,5.27
2022-08-19T23:41:23.170Z,5.73
2022-08-19T23:44:14.909Z,8.97
2022-08-19T23:47:04.800Z,7.17
2022-08-19T23:49:53.969Z,6.87
2022-08-19T23:52:49.993Z,5.10
2022-08-19T23:55:40.209Z,6.00
2022-08-19T23:58:29.992Z,6.80
